Terminal Aerodrome Forecast
Issued by NWS Cleveland, OH

Home | Current Version | Previous Version | Graphics & Text | Print | Product List | Glossary On
Versions: 1 2 3 4 5 6 7 8 9 10 11 12 13 14
000
FTUS41 KCLE 251740
TAFMFD
TAF
KMFD 251740Z 2518/2618 28010G16KT P6SM SCT035 OVC060
     FM252300 23005KT P6SM BKN050
     FM261500 28008KT P6SM BKN035=

USA.gov is the U.S. government's official web portal to all federal, state and local government web resources and services.